createdAt,value
2024-03-02T00:01:47.719Z,3.66
2024-03-02T00:04:16.110Z,3.61
2024-03-02T00:06:44.130Z,3.54
2024-03-02T00:09:13.831Z,3.54
2024-03-02T00:11:41.986Z,3.56
2024-03-02T00:14:10.423Z,3.46
2024-03-02T00:16:38.320Z,3.44
2024-03-02T00:19:09.307Z,3.51
2024-03-02T00:21:37.631Z,3.41
2024-03-02T00:24:19.787Z,3.48
2024-03-02T00:26:48.097Z,3.54
2024-03-02T00:29:18.457Z,3.50
2024-03-02T00:31:46.634Z,3.41
2024-03-02T00:34:17.503Z,3.47
2024-03-02T00:36:46.084Z,3.47
2024-03-02T00:39:15.073Z,3.54
2024-03-02T00:41:44.418Z,3.47
2024-03-02T00:44:15.322Z,3.47
2024-03-02T00:46:45.009Z,3.51
2024-03-02T00:49:24.300Z,3.54
2024-03-02T00:51:54.362Z,3.53
2024-03-02T00:54:25.339Z,3.51
2024-03-02T00:56:53.649Z,3.49
2024-03-02T00:59:21.545Z,3.47
2024-03-02T01:01:52.516Z,3.42
2024-03-02T01:04:21.876Z,3.42
2024-03-02T01:06:50.154Z,3.40
2024-03-02T01:09:19.264Z,3.38
2024-03-02T01:11:47.573Z,3.32
2024-03-02T01:14:15.507Z,3.30
2024-03-02T01:16:43.446Z,3.34
2024-03-02T01:19:12.166Z,3.30
2024-03-02T01:21:41.725Z,3.25
2024-03-02T01:24:09.901Z,3.23
2024-03-02T01:26:37.708Z,3.21
2024-03-02T01:29:06.357Z,3.19
2024-03-02T01:31:34.323Z,3.11
2024-03-02T01:34:02.936Z,3.06
2024-03-02T01:36:31.085Z,3.08
2024-03-02T01:39:00.328Z,3.02
2024-03-02T01:41:29.180Z,2.90
2024-03-02T01:43:57.213Z,2.84
2024-03-02T01:46:26.088Z,2.85
2024-03-02T01:48:54.001Z,2.81
2024-03-02T01:51:22.584Z,2.78
2024-03-02T01:53:50.696Z,2.63
2024-03-02T01:56:19.975Z,2.73
2024-03-02T01:58:47.976Z,2.69
2024-03-02T02:01:17.166Z,2.66
2024-03-02T02:03:46.121Z,2.66
2024-03-02T02:06:14.640Z,2.68
2024-03-02T02:08:42.609Z,2.70
2024-03-02T02:11:10.610Z,2.69
2024-03-02T02:13:39.949Z,2.76
2024-03-02T02:16:08.814Z,2.75
2024-03-02T02:18:37.112Z,2.73
2024-03-02T02:21:05.798Z,2.75
2024-03-02T02:23:35.307Z,2.77
2024-03-02T02:26:04.945Z,2.82
2024-03-02T02:28:32.869Z,2.73
2024-03-02T02:31:01.564Z,2.75
2024-03-02T02:33:30.119Z,2.72
2024-03-02T02:35:58.025Z,2.74
2024-03-02T02:38:25.939Z,2.75
2024-03-02T02:40:55.214Z,2.76
2024-03-02T02:43:23.279Z,2.72
2024-03-02T02:45:51.190Z,2.62
2024-03-02T02:48:19.244Z,2.61
2024-03-02T02:50:47.188Z,2.63
2024-03-02T02:53:15.583Z,2.71
2024-03-02T02:55:44.676Z,2.80
2024-03-02T02:58:14.217Z,2.85
2024-03-02T03:00:42.806Z,2.84
2024-03-02T03:03:10.759Z,2.75
2024-03-02T03:05:38.588Z,2.74
2024-03-02T03:08:06.682Z,2.71
2024-03-02T03:10:34.621Z,2.77
2024-03-02T03:13:02.644Z,2.73
2024-03-02T03:15:31.945Z,2.70
2024-03-02T03:17:59.881Z,2.67
2024-03-02T03:20:27.771Z,2.69
2024-03-02T03:22:55.640Z,2.80
2024-03-02T03:25:23.555Z,2.79
2024-03-02T03:27:53.052Z,2.74
2024-03-02T03:30:21.143Z,2.67
2024-03-02T03:32:50.288Z,2.66
2024-03-02T03:35:19.662Z,2.66
2024-03-02T03:37:47.548Z,2.64
2024-03-02T03:40:15.608Z,2.65
2024-03-02T03:42:44.003Z,2.63
2024-03-02T03:45:12.111Z,2.57
2024-03-02T03:47:40.037Z,2.61
2024-03-02T03:50:10.237Z,2.69
2024-03-02T03:52:38.197Z,2.61
2024-03-02T03:55:07.544Z,2.60
2024-03-02T03:57:35.687Z,2.66
2024-03-02T04:00:03.703Z,2.62
2024-03-02T04:02:31.472Z,2.65
2024-03-02T04:04:59.398Z,2.73
2024-03-02T04:07:28.665Z,2.73
2024-03-02T04:09:56.635Z,2.72
2024-03-02T04:12:24.772Z,2.62
2024-03-02T04:14:52.808Z,2.55
2024-03-02T04:17:20.617Z,2.62
2024-03-02T04:19:48.411Z,2.61
2024-03-02T04:22:21.639Z,2.60
2024-03-02T04:24:54.814Z,2.54
2024-03-02T04:27:22.873Z,2.54
2024-03-02T04:29:50.884Z,2.49
2024-03-02T04:32:20.727Z,2.41
2024-03-02T04:34:48.574Z,2.34
2024-03-02T04:37:16.619Z,2.25
2024-03-02T04:39:44.663Z,2.21
2024-03-02T04:42:13.914Z,2.15
2024-03-02T04:44:41.776Z,2.14
2024-03-02T04:47:09.628Z,2.18
2024-03-02T04:49:37.565Z,2.10
2024-03-02T04:52:06.209Z,2.11
2024-03-02T04:54:36.095Z,2.15
2024-03-02T04:57:03.975Z,2.15
2024-03-02T04:59:33.161Z,2.09
2024-03-02T05:02:01.442Z,2.05
2024-03-02T05:04:29.230Z,2.11
2024-03-02T05:06:59.168Z,2.18
2024-03-02T05:09:27.042Z,2.22
2024-03-02T05:12:12.995Z,2.29
2024-03-02T05:14:42.189Z,2.23
2024-03-02T05:17:10.034Z,2.23
2024-03-02T05:19:37.864Z,2.20
2024-03-02T05:22:06.841Z,2.25
2024-03-02T05:24:35.235Z,2.18
2024-03-02T05:27:03.124Z,2.20
2024-03-02T05:29:30.990Z,2.16
2024-03-02T05:32:00.139Z,2.16
2024-03-02T05:34:28.031Z,2.10
2024-03-02T05:36:55.919Z,2.06
2024-03-02T05:39:23.831Z,2.08
2024-03-02T05:41:51.684Z,2.09
2024-03-02T05:44:20.545Z,2.12
2024-03-02T05:46:48.377Z,2.19
2024-03-02T05:49:17.601Z,2.26
2024-03-02T05:51:45.498Z,2.31
2024-03-02T05:54:13.642Z,2.32
2024-03-02T05:56:42.154Z,2.36
2024-03-02T05:59:13.912Z,2.39
2024-03-02T06:01:42.286Z,2.35
2024-03-02T06:04:12.115Z,2.48
2024-03-02T06:06:41.490Z,2.49
2024-03-02T06:09:09.914Z,2.55
2024-03-02T06:11:37.842Z,2.64
2024-03-02T06:14:07.100Z,2.64
2024-03-02T06:16:36.228Z,2.64
2024-03-02T06:19:04.627Z,2.77
2024-03-02T06:21:32.477Z,2.73
2024-03-02T06:24:02.309Z,2.80
2024-03-02T06:26:30.869Z,2.84
2024-03-02T06:28:58.746Z,2.89
2024-03-02T06:31:26.575Z,3.01
2024-03-02T06:33:54.419Z,3.07
2024-03-02T06:36:22.410Z,3.17
2024-03-02T06:38:50.218Z,3.17
2024-03-02T06:41:19.389Z,3.24
2024-03-02T06:43:48.196Z,3.28
2024-03-02T06:46:16.468Z,3.31
2024-03-02T06:48:44.643Z,3.39
2024-03-02T06:51:12.817Z,3.49
2024-03-02T06:53:40.604Z,3.52
2024-03-02T06:56:10.600Z,3.58
2024-03-02T06:58:39.880Z,3.64
2024-03-02T07:01:07.729Z,3.66
2024-03-02T07:03:35.717Z,3.68
2024-03-02T07:06:04.136Z,3.76
2024-03-02T07:08:31.956Z,3.79
2024-03-02T07:10:59.844Z,3.86
2024-03-02T07:13:27.973Z,3.99
2024-03-02T07:16:23.937Z,3.91
2024-03-02T07:18:53.542Z,4.07
2024-03-02T07:21:23.377Z,4.07
2024-03-02T07:23:51.699Z,4.13
2024-03-02T07:28:51.265Z,4.20
2024-03-02T07:31:20.443Z,4.23
2024-03-02T07:33:48.585Z,4.21
2024-03-02T07:36:16.844Z,4.31
2024-03-02T07:38:45.950Z,4.37
2024-03-02T07:41:14.447Z,4.38
2024-03-02T07:43:42.346Z,4.43
2024-03-02T07:46:10.273Z,4.44
2024-03-02T07:48:40.207Z,4.47
2024-03-02T07:51:08.077Z,4.53
2024-03-02T07:53:35.884Z,4.53
2024-03-02T07:56:04.210Z,4.53
2024-03-02T07:58:32.833Z,4.53
2024-03-02T08:01:02.639Z,4.66
2024-03-02T08:03:30.749Z,4.60
2024-03-02T08:06:00.083Z,4.63
2024-03-02T08:08:28.018Z,4.66
2024-03-02T08:13:23.630Z,4.73
2024-03-02T08:15:51.646Z,4.79
2024-03-02T08:18:20.428Z,4.82
2024-03-02T08:20:48.410Z,4.78
2024-03-02T08:23:17.647Z,4.73
2024-03-02T08:25:46.077Z,4.78
2024-03-02T08:28:14.045Z,4.75
2024-03-02T08:30:42.011Z,4.69
2024-03-02T08:33:09.929Z,4.74
2024-03-02T08:35:37.763Z,4.70
2024-03-02T08:38:06.615Z,4.65
2024-03-02T08:40:35.808Z,4.58
2024-03-02T08:43:03.832Z,4.60
2024-03-02T08:45:31.805Z,4.64
2024-03-02T08:47:59.762Z,4.71
2024-03-02T08:50:28.033Z,4.64
2024-03-02T08:52:55.862Z,4.63
2024-03-02T08:55:23.721Z,4.67
2024-03-02T08:57:53.101Z,4.62
2024-03-02T09:00:21.641Z,4.57
2024-03-02T09:02:49.657Z,4.54
2024-03-02T09:05:17.619Z,4.52
2024-03-02T09:07:45.477Z,4.50
2024-03-02T09:10:13.632Z,4.52
2024-03-02T09:12:42.204Z,4.50
2024-03-02T09:15:11.866Z,4.51
2024-03-02T09:17:39.782Z,4.54
2024-03-02T09:20:08.582Z,4.59
2024-03-02T09:22:36.420Z,4.65
2024-03-02T09:25:04.510Z,4.64
2024-03-02T09:27:32.439Z,4.75
2024-03-02T09:30:00.239Z,4.77
2024-03-02T09:32:30.088Z,4.77
2024-03-02T09:34:59.689Z,4.82
2024-03-02T09:37:27.923Z,4.79
2024-03-02T09:39:56.089Z,4.85
2024-03-02T09:42:24.967Z,4.93
2024-03-02T09:44:53.149Z,5.12
2024-03-02T09:47:21.103Z,5.28
2024-03-02T09:49:50.910Z,5.49
2024-03-02T09:52:18.707Z,5.66
2024-03-02T09:54:46.589Z,5.69
2024-03-02T09:57:14.479Z,5.66
2024-03-02T09:59:42.300Z,5.67
2024-03-02T10:02:10.165Z,5.70
2024-03-02T10:04:37.979Z,5.68
2024-03-02T10:07:15.226Z,5.75
2024-03-02T10:09:43.990Z,5.63
2024-03-02T10:12:13.413Z,5.58
2024-03-02T10:14:41.849Z,5.52
2024-03-02T10:17:11.055Z,5.55
2024-03-02T10:19:40.087Z,5.50
2024-03-02T10:22:09.601Z,5.43
2024-03-02T10:24:40.360Z,5.45
2024-03-02T10:27:12.243Z,5.46
2024-03-02T10:29:42.878Z,5.45
2024-03-02T10:32:12.254Z,5.45
2024-03-02T10:34:42.229Z,5.28
2024-03-02T10:37:10.684Z,5.18
2024-03-02T10:39:41.171Z,5.24
2024-03-02T10:42:10.154Z,5.19
2024-03-02T10:44:38.080Z,5.25
2024-03-02T10:47:07.205Z,5.19
2024-03-02T10:49:36.087Z,5.22
2024-03-02T10:52:05.101Z,5.20
2024-03-02T10:54:38.118Z,5.20
2024-03-02T10:57:10.776Z,5.16
2024-03-02T10:59:41.132Z,5.27
2024-03-02T11:02:13.207Z,5.21
2024-03-02T11:04:42.938Z,5.26
2024-03-02T11:07:13.116Z,5.24
2024-03-02T11:09:43.963Z,5.19
2024-03-02T11:12:19.506Z,5.16
2024-03-02T11:14:47.423Z,5.40
2024-03-02T11:17:17.834Z,5.41
2024-03-02T11:19:47.389Z,5.37
2024-03-02T11:22:16.955Z,5.32
2024-03-02T11:24:50.820Z,5.41
2024-03-02T11:28:01.525Z,5.33
2024-03-02T11:30:52.238Z,5.28
2024-03-02T11:33:32.568Z,5.33
2024-03-02T11:36:01.034Z,5.27
2024-03-02T11:38:35.909Z,5.36
2024-03-02T11:41:05.406Z,5.29
2024-03-02T11:43:34.872Z,5.39
2024-03-02T11:46:05.703Z,5.51
2024-03-02T11:48:34.184Z,5.47
2024-03-02T11:51:02.833Z,5.34
2024-03-02T11:53:33.166Z,5.54
2024-03-02T11:56:04.086Z,5.56
2024-03-02T11:58:32.478Z,5.46
2024-03-02T12:01:01.824Z,5.42
2024-03-02T12:03:30.363Z,5.43
2024-03-02T12:05:58.448Z,5.42
2024-03-02T12:08:26.991Z,5.43
2024-03-02T12:11:01.934Z,5.35
2024-03-02T12:13:30.195Z,5.13
2024-03-02T12:15:58.618Z,5.25
2024-03-02T12:18:28.248Z,5.25
2024-03-02T12:20:58.843Z,5.22
2024-03-02T12:23:28.077Z,5.17
2024-03-02T12:25:56.490Z,5.13
2024-03-02T12:28:24.364Z,5.00
2024-03-02T12:30:53.033Z,5.07
2024-03-02T12:33:22.315Z,5.15
2024-03-02T12:35:52.640Z,5.17
2024-03-02T12:38:20.870Z,5.09
2024-03-02T12:40:51.001Z,5.08
2024-03-02T12:43:18.985Z,5.12
2024-03-02T12:45:47.304Z,5.06
2024-03-02T12:48:16.007Z,4.97
2024-03-02T12:50:45.345Z,4.94
2024-03-02T12:53:18.496Z,4.93
2024-03-02T12:55:46.751Z,4.98
2024-03-02T12:58:19.538Z,4.97
2024-03-02T13:00:47.637Z,5.06
2024-03-02T13:03:16.683Z,5.07
2024-03-02T13:05:45.322Z,5.02
2024-03-02T13:08:13.992Z,5.07
2024-03-02T13:10:43.469Z,5.01
2024-03-02T13:13:11.462Z,4.94
2024-03-02T13:15:40.354Z,5.00
2024-03-02T13:18:10.507Z,4.92
2024-03-02T13:20:38.399Z,4.97
2024-03-02T13:23:06.328Z,4.85
2024-03-02T13:25:34.435Z,4.75
2024-03-02T13:28:04.344Z,4.69
2024-03-02T13:30:32.321Z,4.79
2024-03-02T13:33:00.172Z,4.79
2024-03-02T13:35:28.061Z,4.79
2024-03-02T13:37:55.872Z,4.88
2024-03-02T13:40:24.732Z,4.86
2024-03-02T13:42:54.915Z,4.96
2024-03-02T13:45:24.273Z,4.83
2024-03-02T13:47:53.289Z,4.84
2024-03-02T13:50:21.607Z,4.84
2024-03-02T13:52:49.436Z,4.86
2024-03-02T13:55:17.301Z,4.79
2024-03-02T13:57:45.204Z,4.73
2024-03-02T14:00:14.374Z,4.71
2024-03-02T14:02:43.762Z,4.57
2024-03-02T14:05:12.921Z,4.58
2024-03-02T14:07:41.011Z,4.59
2024-03-02T14:10:09.522Z,4.53
2024-03-02T14:12:38.681Z,4.53
2024-03-02T14:15:07.761Z,4.47
2024-03-02T14:17:36.277Z,4.54
2024-03-02T14:20:11.440Z,4.57
2024-03-02T14:22:39.410Z,4.62
2024-03-02T14:25:07.881Z,4.61
2024-03-02T14:27:50.871Z,4.60
2024-03-02T14:30:24.489Z,4.58
2024-03-02T14:32:52.501Z,4.69
2024-03-02T14:35:23.906Z,4.60
2024-03-02T14:37:51.960Z,4.46
2024-03-02T14:40:19.850Z,4.51
2024-03-02T14:42:49.422Z,4.58
2024-03-02T14:45:17.642Z,4.54
2024-03-02T14:47:45.828Z,4.50
2024-03-02T14:50:13.985Z,4.40
2024-03-02T14:52:46.004Z,4.36
2024-03-02T14:55:14.267Z,4.32
2024-03-02T14:57:42.214Z,4.23
2024-03-02T15:00:12.867Z,4.29
2024-03-02T15:02:40.765Z,4.25
2024-03-02T15:05:09.571Z,4.27
2024-03-02T15:07:37.494Z,4.23
2024-03-02T15:10:08.217Z,4.19
2024-03-02T15:12:36.277Z,4.19
2024-03-02T15:15:04.772Z,4.19
2024-03-02T15:17:32.799Z,4.22
2024-03-02T15:20:00.621Z,4.33
2024-03-02T15:22:30.493Z,4.28
2024-03-02T15:24:58.360Z,4.24
2024-03-02T15:27:28.536Z,4.19
2024-03-02T15:29:58.463Z,4.16
2024-03-02T15:32:27.817Z,4.27
2024-03-02T15:34:55.806Z,4.17
2024-03-02T15:37:24.003Z,4.21
2024-03-02T15:39:51.891Z,4.18
2024-03-02T15:42:20.221Z,4.17
2024-03-02T15:44:49.426Z,4.20
2024-03-02T15:47:17.493Z,4.19
2024-03-02T15:49:45.707Z,4.18
2024-03-02T15:52:17.046Z,4.15
2024-03-02T15:54:44.865Z,4.16
2024-03-02T15:57:12.865Z,4.14
2024-03-02T15:59:40.741Z,4.15
2024-03-02T16:02:10.019Z,4.11
2024-03-02T16:04:37.913Z,4.13
2024-03-02T16:07:06.133Z,4.13
2024-03-02T16:09:34.053Z,4.09
2024-03-02T16:12:01.990Z,4.06
2024-03-02T16:14:29.868Z,4.00
2024-03-02T16:16:58.477Z,3.92
2024-03-02T16:19:32.941Z,3.94
2024-03-02T16:22:01.662Z,3.83
2024-03-02T16:24:29.609Z,3.86
2024-03-02T16:26:57.505Z,3.83
2024-03-02T16:29:25.327Z,3.86
2024-03-02T16:31:53.202Z,3.85
2024-03-02T16:34:21.062Z,3.90
2024-03-02T16:36:50.802Z,3.89
2024-03-02T16:39:20.444Z,3.85
2024-03-02T16:41:48.689Z,3.85
2024-03-02T16:44:17.576Z,3.94
2024-03-02T16:46:46.436Z,3.92
2024-03-02T16:49:14.536Z,3.99
2024-03-02T16:51:42.757Z,3.99
2024-03-02T16:54:12.300Z,3.97
2024-03-02T16:56:40.657Z,3.99
2024-03-02T16:59:08.919Z,3.92
2024-03-02T17:01:38.071Z,3.92
2024-03-02T17:04:07.562Z,3.84
2024-03-02T17:06:35.737Z,3.90
2024-03-02T17:09:03.664Z,3.86
2024-03-02T17:11:32.994Z,3.87
2024-03-02T17:14:01.011Z,3.88
2024-03-02T17:16:28.905Z,3.91
2024-03-02T17:18:56.914Z,3.85
2024-03-02T17:21:26.288Z,3.86
2024-03-02T17:23:54.192Z,3.88
2024-03-02T17:26:22.226Z,3.83
2024-03-02T17:28:51.584Z,3.81
2024-03-02T17:31:19.413Z,3.82
2024-03-02T17:33:47.772Z,3.82
2024-03-02T17:36:15.912Z,3.82
2024-03-02T17:38:44.014Z,3.86
2024-03-02T17:41:12.365Z,3.82
2024-03-02T17:43:40.584Z,3.92
2024-03-02T17:46:09.895Z,3.91
2024-03-02T17:48:37.872Z,3.84
2024-03-02T17:51:09.081Z,3.83
2024-03-02T17:53:37.243Z,3.87
2024-03-02T17:56:05.803Z,3.82
2024-03-02T17:58:34.677Z,3.86
2024-03-02T18:01:02.764Z,3.86
2024-03-02T18:03:32.198Z,3.93
2024-03-02T18:06:00.125Z,3.92
2024-03-02T18:08:28.088Z,3.91
2024-03-02T18:10:56.412Z,3.88
2024-03-02T18:13:24.543Z,3.87
2024-03-02T18:15:52.819Z,3.91
2024-03-02T18:18:21.030Z,3.93
2024-03-02T18:20:50.887Z,3.85
2024-03-02T18:23:18.737Z,3.93
2024-03-02T18:25:48.506Z,3.92
2024-03-02T18:28:16.610Z,3.92
2024-03-02T18:30:44.572Z,3.92
2024-03-02T18:33:12.516Z,3.85
2024-03-02T18:35:40.369Z,3.86
2024-03-02T18:38:09.509Z,3.94
2024-03-02T18:40:37.383Z,3.93
2024-03-02T18:43:05.927Z,3.91
2024-03-02T18:45:33.946Z,3.85
2024-03-02T18:48:04.051Z,3.87
2024-03-02T18:50:34.194Z,3.89
2024-03-02T18:53:02.127Z,3.92
2024-03-02T18:55:31.312Z,3.86
2024-03-02T18:57:59.274Z,3.96
2024-03-02T19:00:27.262Z,3.94
2024-03-02T19:02:55.125Z,3.96
2024-03-02T19:05:22.997Z,3.97
2024-03-02T19:07:50.841Z,3.93
2024-03-02T19:10:19.111Z,3.92
2024-03-02T19:12:50.385Z,3.92
2024-03-02T19:15:23.115Z,3.91
2024-03-02T19:17:50.981Z,3.92
2024-03-02T19:20:18.803Z,3.93
2024-03-02T19:22:47.396Z,3.89
2024-03-02T19:25:15.941Z,3.94
2024-03-02T19:27:43.841Z,3.89
2024-03-02T19:30:14.433Z,3.86
2024-03-02T19:32:42.471Z,3.91
2024-03-02T19:35:13.039Z,3.94
2024-03-02T19:37:42.278Z,3.89
2024-03-02T19:40:11.145Z,3.86
2024-03-02T19:42:39.305Z,3.87
2024-03-02T19:45:08.200Z,3.88
2024-03-02T19:47:37.500Z,3.86
2024-03-02T19:50:06.470Z,3.85
2024-03-02T19:52:34.469Z,3.73
2024-03-02T19:55:03.004Z,3.85
2024-03-02T19:57:31.837Z,3.90
2024-03-02T19:59:59.766Z,3.91
2024-03-02T20:02:28.159Z,3.92
2024-03-02T20:04:58.535Z,3.95
2024-03-02T20:07:26.389Z,3.93
2024-03-02T20:09:54.414Z,3.89
2024-03-02T20:12:22.392Z,3.86
2024-03-02T20:14:50.264Z,3.90
2024-03-02T20:17:18.133Z,3.92
2024-03-02T20:19:46.277Z,3.87
2024-03-02T20:22:16.319Z,3.90
2024-03-02T20:24:44.294Z,3.86
2024-03-02T20:27:12.374Z,3.87
2024-03-02T20:29:40.242Z,3.85
2024-03-02T20:32:08.879Z,3.87
2024-03-02T20:34:36.880Z,3.86
2024-03-02T20:37:05.480Z,3.92
2024-03-02T20:39:34.858Z,3.87
2024-03-02T20:42:02.737Z,3.86
2024-03-02T20:44:30.594Z,3.83
2024-03-02T20:46:58.464Z,3.85
2024-03-02T20:49:26.900Z,3.83
2024-03-02T20:51:54.843Z,3.81
2024-03-02T20:54:22.713Z,3.84
2024-03-02T20:56:52.989Z,3.77
2024-03-02T20:59:20.856Z,3.81
2024-03-02T21:01:49.388Z,3.76
2024-03-02T21:04:17.394Z,3.76
2024-03-02T21:06:45.600Z,3.74
2024-03-02T21:09:13.512Z,3.72
2024-03-02T21:11:41.887Z,3.71
2024-03-02T21:14:11.145Z,3.80
2024-03-02T21:16:41.251Z,3.74
2024-03-02T21:19:09.593Z,3.77
2024-03-02T21:21:39.798Z,3.78
2024-03-02T21:24:08.092Z,3.80
2024-03-02T21:26:39.826Z,3.77
2024-03-02T21:29:07.751Z,3.77
2024-03-02T21:31:36.973Z,3.73
2024-03-02T21:34:05.359Z,3.78
2024-03-02T21:36:33.881Z,3.79
2024-03-02T21:39:05.318Z,3.76
2024-03-02T21:41:33.747Z,3.85
2024-03-02T21:44:01.673Z,3.84
2024-03-02T21:46:29.599Z,3.78
2024-03-02T21:48:58.886Z,3.80
2024-03-02T21:51:29.560Z,3.80
2024-03-02T21:53:59.329Z,3.74
2024-03-02T21:56:27.282Z,3.80
2024-03-02T21:58:55.324Z,3.78
2024-03-02T22:01:23.366Z,3.72
2024-03-02T22:03:51.292Z,3.68
2024-03-02T22:06:20.452Z,3.69
2024-03-02T22:08:48.276Z,3.68
2024-03-02T22:11:16.168Z,3.73
2024-03-02T22:13:46.010Z,3.75
2024-03-02T22:16:13.962Z,3.75
2024-03-02T22:18:41.930Z,3.78
2024-03-02T22:21:09.977Z,3.73
2024-03-02T22:23:40.371Z,3.74
2024-03-02T22:26:08.159Z,3.74
2024-03-02T22:28:35.945Z,3.76
2024-03-02T22:31:03.813Z,3.61
2024-03-02T22:33:31.649Z,3.66
2024-03-02T22:35:59.462Z,3.65
2024-03-02T22:38:27.284Z,3.60
2024-03-02T22:40:56.448Z,3.64
2024-03-02T22:43:24.367Z,3.61
2024-03-02T22:45:52.611Z,3.56
2024-03-02T22:48:20.470Z,3.59
2024-03-02T22:50:48.317Z,3.56
2024-03-02T22:53:16.423Z,3.53
2024-03-02T22:55:44.308Z,3.46
2024-03-02T22:58:13.576Z,3.51
2024-03-02T23:00:49.315Z,3.50
2024-03-02T23:03:19.254Z,3.40
2024-03-02T23:05:47.275Z,3.38
2024-03-02T23:08:15.203Z,3.40
2024-03-02T23:10:43.260Z,3.44
2024-03-02T23:13:11.237Z,3.44
2024-03-02T23:15:40.807Z,3.51
2024-03-02T23:18:08.705Z,3.46
2024-03-02T23:20:36.762Z,3.55
2024-03-02T23:23:05.946Z,3.54
2024-03-02T23:25:33.996Z,3.58
2024-03-02T23:28:02.215Z,3.57
2024-03-02T23:30:30.792Z,3.60
2024-03-02T23:33:00.189Z,3.62
2024-03-02T23:35:28.074Z,3.56
2024-03-02T23:37:55.960Z,3.53
2024-03-02T23:40:45.926Z,3.50
2024-03-02T23:43:14.480Z,3.54
2024-03-02T23:45:42.372Z,3.45
2024-03-02T23:48:12.136Z,3.56
2024-03-02T23:50:40.097Z,3.54
2024-03-02T23:53:07.929Z,3.56
2024-03-02T23:55:46.545Z,3.49
2024-03-02T23:58:19.695Z,3.50
